createdAt,value
2018-01-30T00:02:12.137Z,42.90
2018-01-30T00:04:39.556Z,34.97
2018-01-30T00:07:07.029Z,29.67
2018-01-30T00:09:34.480Z,42.53
2018-01-30T00:12:01.950Z,39.60
2018-01-30T00:14:29.501Z,36.27
2018-01-30T00:16:56.990Z,44.43
2018-01-30T00:19:24.453Z,34.37
2018-01-30T00:21:51.929Z,41.93
2018-01-30T00:24:20.147Z,32.77
2018-01-30T00:26:47.631Z,34.20
2018-01-30T00:29:15.064Z,32.03
2018-01-30T00:31:42.528Z,22.13
2018-01-30T00:34:09.990Z,30.33
2018-01-30T00:36:37.450Z,36.03
2018-01-30T00:39:05.662Z,28.90
2018-01-30T00:41:33.102Z,32.00
2018-01-30T00:44:00.562Z,23.17
2018-01-30T00:46:28.001Z,21.80
2018-01-30T00:48:55.451Z,25.67
2018-01-30T00:51:22.910Z,28.67
2018-01-30T00:53:50.353Z,24.93
2018-01-30T00:56:17.823Z,27.70
2018-01-30T00:58:45.268Z,21.13
2018-01-30T01:01:12.698Z,29.80
2018-01-30T01:03:40.154Z,32.73
2018-01-30T01:06:07.599Z,22.53
2018-01-30T01:08:35.067Z,28.40
2018-01-30T01:11:02.516Z,36.83
2018-01-30T01:13:30.707Z,30.37
2018-01-30T01:15:58.182Z,26.73
2018-01-30T01:18:25.608Z,28.20
2018-01-30T01:20:53.100Z,31.73
2018-01-30T01:23:20.532Z,37.17
2018-01-30T01:25:47.974Z,27.83
2018-01-30T01:28:15.438Z,36.07
2018-01-30T01:30:42.866Z,41.33
2018-01-30T01:33:10.293Z,29.47
2018-01-30T01:35:37.755Z,41.07
2018-01-30T01:38:05.199Z,28.63
2018-01-30T01:40:32.658Z,30.07
2018-01-30T01:43:00.095Z,29.77
2018-01-30T01:45:27.554Z,29.93
2018-01-30T01:47:55.015Z,28.33
2018-01-30T01:50:22.466Z,32.60
2018-01-30T01:52:49.939Z,24.80
2018-01-30T01:55:17.400Z,30.43
2018-01-30T01:57:44.830Z,23.47
2018-01-30T02:00:13.062Z,32.93
2018-01-30T02:02:41.273Z,28.50
2018-01-30T02:05:08.730Z,37.37
2018-01-30T02:07:36.190Z,36.67
2018-01-30T02:10:03.632Z,34.77
2018-01-30T02:12:31.087Z,28.17
2018-01-30T02:14:58.523Z,24.97
2018-01-30T02:17:26.722Z,29.37
2018-01-30T02:19:54.174Z,34.50
2018-01-30T02:22:21.619Z,29.10
2018-01-30T02:24:49.842Z,29.33
2018-01-30T02:27:17.275Z,19.60
2018-01-30T02:29:44.722Z,29.10
2018-01-30T02:32:12.269Z,21.43
2018-01-30T02:34:39.726Z,21.40
2018-01-30T02:37:07.180Z,18.40
2018-01-30T02:39:35.366Z,29.50
2018-01-30T02:42:02.833Z,25.63
2018-01-30T02:44:30.266Z,25.00
2018-01-30T02:46:58.510Z,25.53
2018-01-30T02:49:25.966Z,23.63
2018-01-30T02:51:53.406Z,28.73
2018-01-30T02:54:20.866Z,23.77
2018-01-30T02:56:48.294Z,26.13
2018-01-30T02:59:15.745Z,22.63
2018-01-30T03:01:43.203Z,23.33
2018-01-30T03:04:10.642Z,27.97
2018-01-30T03:06:38.100Z,27.90
2018-01-30T03:09:05.572Z,21.97
2018-01-30T03:11:32.998Z,26.77
2018-01-30T03:14:01.227Z,22.03
2018-01-30T03:16:28.698Z,22.10
2018-01-30T03:18:56.119Z,31.13
2018-01-30T03:21:23.559Z,28.43
2018-01-30T03:23:51.002Z,28.77
2018-01-30T03:26:18.439Z,27.13
2018-01-30T03:28:45.898Z,24.33
2018-01-30T03:31:13.353Z,21.33
2018-01-30T03:33:41.580Z,25.30
2018-01-30T03:36:09.030Z,24.27
2018-01-30T03:38:36.500Z,22.50
2018-01-30T03:41:03.949Z,26.87
2018-01-30T03:43:31.378Z,29.43
2018-01-30T03:45:58.846Z,32.63
2018-01-30T03:48:26.290Z,30.30
2018-01-30T03:50:53.728Z,28.30
2018-01-30T03:53:21.954Z,27.30
2018-01-30T03:55:49.390Z,26.57
2018-01-30T03:58:16.824Z,17.60
2018-01-30T04:00:44.289Z,26.43
2018-01-30T04:03:11.728Z,31.20
2018-01-30T04:05:39.185Z,25.43
2018-01-30T04:08:06.606Z,24.23
2018-01-30T04:10:34.062Z,18.67
2018-01-30T04:13:01.563Z,25.07
2018-01-30T04:15:28.950Z,24.73
2018-01-30T04:17:56.398Z,25.67
2018-01-30T04:20:23.838Z,30.13
2018-01-30T04:22:52.126Z,22.47
2018-01-30T04:25:19.564Z,17.87
2018-01-30T04:27:47.790Z,18.27
2018-01-30T04:30:15.249Z,21.97
2018-01-30T04:32:42.702Z,14.43
2018-01-30T04:35:10.130Z,21.30
2018-01-30T04:37:37.661Z,21.97
2018-01-30T04:40:05.111Z,18.70
2018-01-30T04:42:32.546Z,18.83
2018-01-30T04:44:59.994Z,17.70
2018-01-30T04:47:27.435Z,21.80
2018-01-30T04:49:54.894Z,23.37
2018-01-30T04:52:22.362Z,27.90
2018-01-30T04:54:49.794Z,27.73
2018-01-30T04:57:17.248Z,26.93
2018-01-30T04:59:44.734Z,23.00
2018-01-30T05:02:12.171Z,19.60
2018-01-30T05:04:39.598Z,24.83
2018-01-30T05:07:07.063Z,26.87
2018-01-30T05:09:34.482Z,32.90
2018-01-30T05:12:01.944Z,23.70
2018-01-30T05:14:29.384Z,28.67
2018-01-30T05:16:56.829Z,30.90
2018-01-30T05:19:24.274Z,28.40
2018-01-30T05:21:51.730Z,29.73
2018-01-30T05:24:19.195Z,30.10
2018-01-30T05:26:46.635Z,24.13
2018-01-30T05:29:14.094Z,34.37
2018-01-30T05:31:41.540Z,31.73
2018-01-30T05:34:09.022Z,27.00
2018-01-30T05:36:36.461Z,26.40
2018-01-30T05:39:03.906Z,28.13
2018-01-30T05:41:31.365Z,30.10
2018-01-30T05:43:58.834Z,29.00
2018-01-30T05:46:26.302Z,28.03
2018-01-30T05:48:53.739Z,24.07
2018-01-30T05:51:21.169Z,29.50
2018-01-30T05:53:48.640Z,31.87
2018-01-30T05:56:16.070Z,27.37
2018-01-30T05:58:44.299Z,27.03
2018-01-30T06:01:12.499Z,31.57
2018-01-30T06:03:39.954Z,28.57
2018-01-30T06:06:07.392Z,24.10
2018-01-30T06:08:34.851Z,17.70
2018-01-30T06:11:02.298Z,30.67
2018-01-30T06:13:29.770Z,20.40
2018-01-30T06:15:57.216Z,31.40
2018-01-30T06:18:24.687Z,39.43
2018-01-30T06:20:52.130Z,28.27
2018-01-30T06:23:19.614Z,26.73
2018-01-30T06:25:47.059Z,30.40
2018-01-30T06:28:14.517Z,26.47
2018-01-30T06:30:41.972Z,32.90
2018-01-30T06:33:10.176Z,25.33
2018-01-30T06:35:38.394Z,30.97
2018-01-30T06:38:05.874Z,28.97
2018-01-30T06:40:33.414Z,26.90
2018-01-30T06:43:00.859Z,21.13
2018-01-30T06:45:28.309Z,25.27
2018-01-30T06:47:55.777Z,22.63
2018-01-30T06:50:23.202Z,36.60
2018-01-30T06:52:51.427Z,23.83
2018-01-30T06:55:18.862Z,24.77
2018-01-30T06:57:46.319Z,23.80
2018-01-30T07:00:13.776Z,27.30
2018-01-30T07:02:41.202Z,39.40
2018-01-30T07:05:08.659Z,32.37
2018-01-30T07:07:36.094Z,25.03
2018-01-30T07:10:03.552Z,22.60
2018-01-30T07:12:30.997Z,19.40
2018-01-30T07:14:58.450Z,22.73
2018-01-30T07:17:25.882Z,28.20
2018-01-30T07:19:54.099Z,23.33
2018-01-30T07:22:22.307Z,28.40
2018-01-30T07:24:49.834Z,20.20
2018-01-30T07:27:17.242Z,22.50
2018-01-30T07:29:44.692Z,20.77
2018-01-30T07:32:12.142Z,25.33
2018-01-30T07:34:39.599Z,24.63
2018-01-30T07:37:07.055Z,27.10
2018-01-30T07:39:34.526Z,22.40
2018-01-30T07:42:01.967Z,22.57
2018-01-30T07:44:29.408Z,22.23
2018-01-30T07:46:57.634Z,28.30
2018-01-30T07:49:25.104Z,23.87
2018-01-30T07:51:52.550Z,29.77
2018-01-30T07:54:19.983Z,24.67
2018-01-30T07:56:47.430Z,23.77
2018-01-30T07:59:14.858Z,25.37
2018-01-30T08:01:43.083Z,24.67
2018-01-30T08:04:10.519Z,22.47
2018-01-30T08:06:37.976Z,27.13
2018-01-30T08:09:05.414Z,30.00
2018-01-30T08:11:32.870Z,38.90
2018-01-30T08:14:00.310Z,26.63
2018-01-30T08:16:27.766Z,33.50
2018-01-30T08:18:56.042Z,21.67
2018-01-30T08:21:23.490Z,35.30
2018-01-30T08:23:50.938Z,25.93
2018-01-30T08:26:18.386Z,32.73
2018-01-30T08:28:45.858Z,26.57
2018-01-30T08:31:14.062Z,32.40
2018-01-30T08:33:41.516Z,26.47
2018-01-30T08:36:09.050Z,27.17
2018-01-30T08:38:36.505Z,28.03
2018-01-30T08:41:03.955Z,24.30
2018-01-30T08:43:31.401Z,28.70
2018-01-30T08:45:58.854Z,31.03
2018-01-30T08:48:26.311Z,32.10
2018-01-30T08:50:53.778Z,30.70
2018-01-30T08:53:21.202Z,35.13
2018-01-30T08:55:48.671Z,22.57
2018-01-30T08:58:16.129Z,32.67
2018-01-30T09:00:43.582Z,25.77
2018-01-30T09:03:11.048Z,31.03
2018-01-30T09:05:38.571Z,26.93
2018-01-30T09:08:06.018Z,32.83
2018-01-30T09:10:33.467Z,28.70
2018-01-30T09:13:00.895Z,30.13
2018-01-30T09:15:28.363Z,27.07
2018-01-30T09:17:55.798Z,35.23
2018-01-30T09:20:23.247Z,29.43
2018-01-30T09:22:50.701Z,33.43
2018-01-30T09:25:18.159Z,35.27
2018-01-30T09:27:45.583Z,26.80
2018-01-30T09:30:13.054Z,28.13
2018-01-30T09:32:40.490Z,31.13
2018-01-30T09:35:07.957Z,37.97
2018-01-30T09:37:35.380Z,31.40
2018-01-30T09:40:03.598Z,41.10
2018-01-30T09:42:31.035Z,33.07
2018-01-30T09:44:58.491Z,41.90
2018-01-30T09:47:25.937Z,36.83
2018-01-30T09:49:53.395Z,32.20
2018-01-30T09:52:20.822Z,32.50
2018-01-30T09:54:49.042Z,31.40
2018-01-30T09:57:16.494Z,34.80
2018-01-30T09:59:43.936Z,33.13
2018-01-30T10:02:11.382Z,37.80
2018-01-30T10:04:38.943Z,37.43
2018-01-30T10:07:06.398Z,48.40
2018-01-30T10:09:33.845Z,44.20
2018-01-30T10:12:02.066Z,36.90
2018-01-30T10:14:29.511Z,37.87
2018-01-30T10:16:56.969Z,34.80
2018-01-30T10:19:24.402Z,41.03
2018-01-30T10:21:51.838Z,47.80
2018-01-30T10:24:20.063Z,31.37
2018-01-30T10:26:47.507Z,32.27
2018-01-30T10:29:14.968Z,30.87
2018-01-30T10:31:42.402Z,38.67
2018-01-30T10:34:09.849Z,34.07
2018-01-30T10:36:38.056Z,39.03
2018-01-30T10:39:05.544Z,25.40
2018-01-30T10:41:32.974Z,31.20
2018-01-30T10:44:00.427Z,24.80
2018-01-30T10:46:27.895Z,28.37
2018-01-30T10:48:55.342Z,21.07
2018-01-30T10:51:22.782Z,24.60
2018-01-30T10:53:50.243Z,24.87
2018-01-30T10:56:17.710Z,27.53
2018-01-30T10:58:45.138Z,21.97
2018-01-30T11:01:12.610Z,29.73
2018-01-30T11:03:40.152Z,27.47
2018-01-30T11:06:08.377Z,23.40
2018-01-30T11:08:35.846Z,27.43
2018-01-30T11:11:03.294Z,25.63
2018-01-30T11:13:30.759Z,21.33
2018-01-30T11:15:58.194Z,24.03
2018-01-30T11:18:25.650Z,20.57
2018-01-30T11:20:53.091Z,23.73
2018-01-30T11:23:20.563Z,20.67
2018-01-30T11:25:48.004Z,24.53
2018-01-30T11:28:15.474Z,33.93
2018-01-30T11:30:42.919Z,23.97
2018-01-30T11:33:10.358Z,25.77
2018-01-30T11:35:37.836Z,24.73
2018-01-30T11:38:05.283Z,23.87
2018-01-30T11:40:32.770Z,19.07
2018-01-30T11:43:00.207Z,26.03
2018-01-30T11:45:27.638Z,21.00
2018-01-30T11:47:55.095Z,24.77
2018-01-30T11:50:22.582Z,24.47
2018-01-30T11:52:50.011Z,25.50
2018-01-30T11:55:17.456Z,17.43
2018-01-30T11:57:44.913Z,20.60
2018-01-30T12:00:13.138Z,27.57
2018-01-30T12:02:40.594Z,23.60
2018-01-30T12:05:08.034Z,20.50
2018-01-30T12:07:35.466Z,27.67
2018-01-30T12:10:02.950Z,21.27
2018-01-30T12:12:30.398Z,18.97
2018-01-30T12:14:57.883Z,23.97
2018-01-30T12:17:25.339Z,18.83
2018-01-30T12:19:52.798Z,24.13
2018-01-30T12:22:20.255Z,21.67
2018-01-30T12:24:47.714Z,31.13
2018-01-30T12:27:15.185Z,20.87
2018-01-30T12:29:42.629Z,14.53
2018-01-30T12:32:10.082Z,21.20
2018-01-30T12:34:37.554Z,15.83
2018-01-30T12:37:04.978Z,20.20
2018-01-30T12:39:32.435Z,14.90
2018-01-30T12:41:59.884Z,12.60
2018-01-30T12:44:27.351Z,17.20
2018-01-30T12:46:54.800Z,19.43
2018-01-30T12:49:22.259Z,19.67
2018-01-30T12:51:49.706Z,17.60
2018-01-30T12:54:17.172Z,14.10
2018-01-30T12:56:44.624Z,14.87
2018-01-30T12:59:12.062Z,16.90
2018-01-30T13:01:39.524Z,17.27
2018-01-30T13:04:07.015Z,16.13
2018-01-30T13:06:34.483Z,15.90
2018-01-30T13:09:01.927Z,18.53
2018-01-30T13:11:29.382Z,20.27
2018-01-30T13:13:56.817Z,20.60
2018-01-30T13:16:24.294Z,16.63
2018-01-30T13:18:51.742Z,17.23
2018-01-30T13:21:19.185Z,15.93
2018-01-30T13:23:46.686Z,15.73
2018-01-30T13:26:14.142Z,22.23
2018-01-30T13:28:41.598Z,13.70
2018-01-30T13:31:09.030Z,14.27
2018-01-30T13:33:36.486Z,18.87
2018-01-30T13:36:03.963Z,17.13
2018-01-30T13:38:31.406Z,17.93
2018-01-30T13:40:58.856Z,17.37
2018-01-30T13:43:26.347Z,20.57
2018-01-30T13:45:53.811Z,13.77
2018-01-30T13:48:21.242Z,20.53
2018-01-30T13:50:48.721Z,15.43
2018-01-30T13:53:16.159Z,14.23
2018-01-30T13:55:43.618Z,15.77
2018-01-30T13:58:11.075Z,12.57
2018-01-30T14:00:38.533Z,17.33
2018-01-30T14:03:05.991Z,16.97
2018-01-30T14:05:33.430Z,18.63
2018-01-30T14:08:00.887Z,14.53
2018-01-30T14:10:28.338Z,16.27
2018-01-30T14:12:55.782Z,16.53
2018-01-30T14:15:23.259Z,14.70
2018-01-30T14:17:50.696Z,23.97
2018-01-30T14:20:18.154Z,13.77
2018-01-30T14:22:45.618Z,14.43
2018-01-30T14:25:13.074Z,17.33
2018-01-30T14:27:40.527Z,15.40
2018-01-30T14:30:08.004Z,14.33
2018-01-30T14:32:35.454Z,12.87
2018-01-30T14:35:02.918Z,18.97
2018-01-30T14:37:30.448Z,14.20
2018-01-30T14:39:57.878Z,16.07
2018-01-30T14:42:25.338Z,17.80
2018-01-30T14:44:53.556Z,20.47
2018-01-30T14:47:21.011Z,16.50
2018-01-30T14:49:48.490Z,20.00
2018-01-30T14:52:15.934Z,11.80
2018-01-30T14:54:43.374Z,20.83
2018-01-30T14:57:10.830Z,14.17
2018-01-30T14:59:38.287Z,18.00
2018-01-30T15:02:05.776Z,21.67
2018-01-30T15:04:33.212Z,13.77
2018-01-30T15:07:00.660Z,16.10
2018-01-30T15:09:28.117Z,17.80
2018-01-30T15:11:55.575Z,19.80
2018-01-30T15:14:23.032Z,18.30
2018-01-30T15:16:50.491Z,17.03
2018-01-30T15:19:17.947Z,17.67
2018-01-30T15:21:45.404Z,16.57
2018-01-30T15:24:12.863Z,17.37
2018-01-30T15:26:40.298Z,15.30
2018-01-30T15:29:07.774Z,14.97
2018-01-30T15:31:35.227Z,14.67
2018-01-30T15:34:02.685Z,14.70
2018-01-30T15:36:30.127Z,20.80
2018-01-30T15:38:57.565Z,16.67
2018-01-30T15:41:25.023Z,17.70
2018-01-30T15:43:52.523Z,11.20
2018-01-30T15:46:19.952Z,18.40
2018-01-30T15:48:47.382Z,15.60
2018-01-30T15:51:15.608Z,15.23
2018-01-30T15:53:43.049Z,15.27
2018-01-30T15:56:10.506Z,15.67
2018-01-30T15:58:37.952Z,13.50
2018-01-30T16:01:05.411Z,14.37
2018-01-30T16:03:32.846Z,16.33
2018-01-30T16:06:00.305Z,16.50
2018-01-30T16:08:27.765Z,10.50
2018-01-30T16:10:55.218Z,23.13
2018-01-30T16:13:22.670Z,17.13
2018-01-30T16:15:50.877Z,16.20
2018-01-30T16:18:18.353Z,17.47
2018-01-30T16:20:45.807Z,15.47
2018-01-30T16:23:13.236Z,12.17
2018-01-30T16:25:40.695Z,15.73
2018-01-30T16:28:08.153Z,16.13
2018-01-30T16:30:35.578Z,13.00
2018-01-30T16:33:03.814Z,13.40
2018-01-30T16:35:31.250Z,13.07
2018-01-30T16:37:58.691Z,15.77
2018-01-30T16:40:26.149Z,18.20
2018-01-30T16:42:53.591Z,21.33
2018-01-30T16:45:21.062Z,23.53
2018-01-30T16:47:48.507Z,21.47
2018-01-30T16:50:15.967Z,15.33
2018-01-30T16:52:43.428Z,14.33
2018-01-30T16:55:10.879Z,18.37
2018-01-30T16:57:38.319Z,15.83
2018-01-30T17:00:06.566Z,15.03
2018-01-30T17:02:33.997Z,18.07
2018-01-30T17:05:01.435Z,18.03
2018-01-30T17:07:28.903Z,14.73
2018-01-30T17:09:56.339Z,17.60
2018-01-30T17:12:23.779Z,21.27
2018-01-30T17:14:52.023Z,17.57
2018-01-30T17:17:19.462Z,15.40
2018-01-30T17:19:46.899Z,17.77
2018-01-30T17:22:14.353Z,17.67
2018-01-30T17:24:41.806Z,15.90
2018-01-30T17:27:09.242Z,14.47
2018-01-30T17:29:36.713Z,16.13
2018-01-30T17:32:04.143Z,15.97
2018-01-30T17:34:32.452Z,16.53
2018-01-30T17:36:59.891Z,18.03
2018-01-30T17:39:27.323Z,17.03
2018-01-30T17:41:54.784Z,17.07
2018-01-30T17:44:22.226Z,18.57
2018-01-30T17:46:49.694Z,19.53
2018-01-30T17:49:17.144Z,15.03
2018-01-30T17:51:44.598Z,21.70
2018-01-30T17:54:12.038Z,18.67
2018-01-30T17:56:39.498Z,15.33
2018-01-30T17:59:06.966Z,18.40
2018-01-30T18:01:34.429Z,16.10
2018-01-30T18:04:01.886Z,10.47
2018-01-30T18:06:29.362Z,10.93
2018-01-30T18:08:56.828Z,14.50
2018-01-30T18:11:24.259Z,25.67
2018-01-30T18:13:51.719Z,19.60
2018-01-30T18:16:19.156Z,18.90
2018-01-30T18:18:46.602Z,21.77
2018-01-30T18:21:14.035Z,16.63
2018-01-30T18:23:41.490Z,22.23
2018-01-30T18:26:08.950Z,20.63
2018-01-30T18:28:36.378Z,21.37
2018-01-30T18:31:03.831Z,25.13
2018-01-30T18:33:31.266Z,28.93
2018-01-30T18:35:59.502Z,22.20
2018-01-30T18:38:26.944Z,25.63
2018-01-30T18:40:54.378Z,29.13
2018-01-30T18:43:21.835Z,23.47
2018-01-30T18:45:49.274Z,19.80
2018-01-30T18:48:16.724Z,15.80
2018-01-30T18:50:44.188Z,20.53
2018-01-30T18:53:11.658Z,15.20
2018-01-30T18:55:39.853Z,17.87
2018-01-30T18:58:07.310Z,12.60
2018-01-30T19:00:34.767Z,15.10
2018-01-30T19:03:02.223Z,17.43
2018-01-30T19:05:29.680Z,16.90
2018-01-30T19:07:57.124Z,18.20
2018-01-30T19:10:24.594Z,14.53
2018-01-30T19:12:52.032Z,23.53
2018-01-30T19:15:19.475Z,20.70
2018-01-30T19:17:47.702Z,16.17
2018-01-30T19:20:15.150Z,21.27
2018-01-30T19:22:42.587Z,19.43
2018-01-30T19:25:10.050Z,19.93
2018-01-30T19:27:37.490Z,22.30
2018-01-30T19:30:04.947Z,19.63
2018-01-30T19:32:32.394Z,17.93
2018-01-30T19:35:00.621Z,16.47
2018-01-30T19:37:28.079Z,12.80
2018-01-30T19:39:55.534Z,17.47
2018-01-30T19:42:22.975Z,14.60
2018-01-30T19:44:50.455Z,14.67
2018-01-30T19:47:17.906Z,22.47
2018-01-30T19:49:45.344Z,16.10
2018-01-30T19:52:12.827Z,19.73
2018-01-30T19:54:40.272Z,23.70
2018-01-30T19:57:07.719Z,22.70
2018-01-30T19:59:35.180Z,22.20
2018-01-30T20:02:02.635Z,20.70
2018-01-30T20:04:30.111Z,21.70
2018-01-30T20:06:57.566Z,29.10
2018-01-30T20:09:25.027Z,25.63
2018-01-30T20:11:52.482Z,24.87
2018-01-30T20:14:19.974Z,28.20
2018-01-30T20:16:48.191Z,21.87
2018-01-30T20:19:15.634Z,29.00
2018-01-30T20:21:43.098Z,24.10
2018-01-30T20:24:10.535Z,24.37
2018-01-30T20:26:43.577Z,20.93
2018-01-30T20:29:11.011Z,24.47
2018-01-30T20:31:38.486Z,24.70
2018-01-30T20:34:05.950Z,28.37
2018-01-30T20:36:33.388Z,23.60
2018-01-30T20:39:00.843Z,26.57
2018-01-30T20:41:28.298Z,33.30
2018-01-30T20:43:55.743Z,31.27
2018-01-30T20:46:23.215Z,26.80
2018-01-30T20:48:50.672Z,29.60
2018-01-30T20:51:18.131Z,30.27
2018-01-30T20:53:45.574Z,25.13
2018-01-30T20:56:13.038Z,26.10
2018-01-30T20:58:40.498Z,30.60
2018-01-30T21:01:07.960Z,25.97
2018-01-30T21:03:35.419Z,26.23
2018-01-30T21:06:02.887Z,28.73
2018-01-30T21:08:30.318Z,24.30
2018-01-30T21:10:57.786Z,24.70
2018-01-30T21:13:25.245Z,30.97
2018-01-30T21:15:53.542Z,31.03
2018-01-30T21:18:20.983Z,31.17
2018-01-30T21:20:48.438Z,30.13
2018-01-30T21:23:15.894Z,27.60
2018-01-30T21:25:43.339Z,29.83
2018-01-30T21:28:10.802Z,34.33
2018-01-30T21:30:38.254Z,35.57
2018-01-30T21:33:05.711Z,33.10
2018-01-30T21:35:33.182Z,36.27
2018-01-30T21:38:00.654Z,32.20
2018-01-30T21:40:28.091Z,37.77
2018-01-30T21:42:55.549Z,31.70
2018-01-30T21:45:22.994Z,33.87
2018-01-30T21:47:50.466Z,37.30
2018-01-30T21:50:17.915Z,32.53
2018-01-30T21:52:45.369Z,33.37
2018-01-30T21:55:12.821Z,38.57
2018-01-30T21:57:40.278Z,37.70
2018-01-30T22:00:07.731Z,30.27
2018-01-30T22:02:35.203Z,33.40
2018-01-30T22:05:02.642Z,31.60
2018-01-30T22:07:30.098Z,37.80
2018-01-30T22:09:57.572Z,34.10
2018-01-30T22:12:25.016Z,34.77
2018-01-30T22:14:52.535Z,37.40
2018-01-30T22:17:19.932Z,38.83
2018-01-30T22:19:47.380Z,40.23
2018-01-30T22:22:14.847Z,36.10
2018-01-30T22:24:42.292Z,38.17
2018-01-30T22:27:09.758Z,38.27
2018-01-30T22:29:37.190Z,39.10
2018-01-30T22:32:04.662Z,35.03
2018-01-30T22:34:32.105Z,39.37
2018-01-30T22:36:59.561Z,48.47
2018-01-30T22:39:27.000Z,43.40
2018-01-30T22:41:54.471Z,44.53
2018-01-30T22:44:29.939Z,43.70
2018-01-30T22:46:49.378Z,43.10
